createdAt,value
2018-11-21T00:02:37.425Z,12.07
2018-11-21T00:05:17.444Z,10.58
2018-11-21T00:07:56.749Z,10.65
2018-11-21T00:10:36.755Z,11.88
2018-11-21T00:13:16.602Z,10.25
2018-11-21T00:15:56.194Z,12.45
2018-11-21T00:18:35.895Z,9.80
2018-11-21T00:21:15.663Z,11.68
2018-11-21T00:23:55.325Z,14.60
2018-11-21T00:26:34.894Z,11.50
2018-11-21T00:29:14.337Z,13.20
2018-11-21T00:31:52.175Z,12.05
2018-11-21T00:34:32.481Z,12.13
2018-11-21T00:37:12.438Z,12.07
2018-11-21T00:39:53.322Z,12.00
2018-11-21T00:42:33.277Z,11.88
2018-11-21T00:45:13.060Z,11.57
2018-11-21T00:47:52.561Z,13.03
2018-11-21T00:50:32.226Z,11.78
2018-11-21T00:53:11.877Z,11.90
2018-11-21T00:55:51.904Z,11.70
2018-11-21T00:58:31.667Z,13.28
2018-11-21T01:01:11.263Z,11.97
2018-11-21T01:03:50.916Z,12.47
2018-11-21T01:06:30.643Z,15.93
2018-11-21T01:08:57.755Z,13.30
2018-11-21T01:11:44.491Z,13.13
2018-11-21T01:14:31.134Z,14.28
2018-11-21T01:17:10.965Z,15.53
2018-11-21T01:19:50.524Z,15.68
2018-11-21T01:22:30.470Z,15.13
2018-11-21T01:25:09.971Z,19.42
2018-11-21T01:27:49.865Z,18.20
2018-11-21T01:30:29.588Z,13.13
2018-11-21T01:33:09.720Z,15.18
2018-11-21T01:35:48.733Z,15.85
2018-11-21T01:38:28.113Z,14.75
2018-11-21T01:41:08.281Z,15.28
2018-11-21T01:43:48.539Z,19.05
2018-11-21T01:46:28.104Z,17.67
2018-11-21T01:49:07.807Z,14.87
2018-11-21T01:51:47.424Z,17.00
2018-11-21T01:54:27.096Z,14.98
2018-11-21T01:57:06.696Z,17.12
2018-11-21T01:59:46.204Z,17.10
2018-11-21T02:02:26.536Z,16.35
2018-11-21T02:05:06.179Z,17.45
2018-11-21T02:07:45.552Z,19.90
2018-11-21T02:10:25.187Z,17.52
2018-11-21T02:13:04.737Z,19.65
2018-11-21T02:15:45.096Z,19.75
2018-11-21T02:18:24.698Z,16.50
2018-11-21T02:21:04.394Z,22.10
2018-11-21T02:23:44.190Z,18.75
2018-11-21T02:26:23.825Z,17.40
2018-11-21T02:29:04.015Z,17.95
2018-11-21T02:31:43.659Z,19.17
2018-11-21T02:34:23.328Z,20.57
2018-11-21T02:36:50.732Z,20.97
2018-11-21T02:39:37.363Z,18.42
2018-11-21T02:42:24.029Z,19.15
2018-11-21T02:45:04.206Z,19.50
2018-11-21T02:47:43.988Z,19.00
2018-11-21T02:50:23.449Z,18.48
2018-11-21T02:53:03.209Z,17.45
2018-11-21T02:55:42.845Z,18.40
2018-11-21T02:58:22.399Z,18.62
2018-11-21T03:01:02.014Z,22.00
2018-11-21T03:03:41.716Z,18.75
2018-11-21T03:06:21.669Z,18.40
2018-11-21T03:09:01.323Z,19.55
2018-11-21T03:11:40.982Z,22.22
2018-11-21T03:14:20.773Z,20.52
2018-11-21T03:17:00.585Z,20.97
2018-11-21T03:19:40.387Z,23.27
2018-11-21T03:22:20.097Z,20.85
2018-11-21T03:24:59.849Z,19.35
2018-11-21T03:27:39.728Z,23.47
2018-11-21T03:30:19.865Z,24.18
2018-11-21T03:32:59.266Z,25.60
2018-11-21T03:35:38.912Z,24.27
2018-11-21T03:38:18.820Z,24.30
2018-11-21T03:40:58.469Z,21.93
2018-11-21T03:43:38.350Z,24.98
2018-11-21T03:46:18.071Z,22.37
2018-11-21T03:48:57.821Z,22.70
2018-11-21T03:51:38.036Z,24.23
2018-11-21T03:54:17.815Z,24.18
2018-11-21T03:56:57.436Z,20.05
2018-11-21T03:59:37.195Z,21.42
2018-11-21T04:02:16.853Z,25.57
2018-11-21T04:04:56.576Z,26.45
2018-11-21T04:07:36.552Z,22.82
2018-11-21T04:10:16.332Z,24.12
2018-11-21T04:12:55.996Z,26.62
2018-11-21T04:15:35.614Z,24.85
2018-11-21T04:18:15.125Z,20.82
2018-11-21T04:20:54.718Z,24.95
2018-11-21T04:23:34.275Z,27.40
2018-11-21T04:26:14.618Z,24.45
2018-11-21T04:28:54.825Z,22.70
2018-11-21T04:31:34.227Z,21.68
2018-11-21T04:34:13.943Z,20.95
2018-11-21T04:36:53.682Z,25.08
2018-11-21T04:39:33.231Z,21.30
2018-11-21T04:42:13.086Z,24.00
2018-11-21T04:44:53.447Z,22.00
2018-11-21T04:47:33.506Z,24.65
2018-11-21T04:50:13.385Z,26.27
2018-11-21T04:52:53.230Z,23.55
2018-11-21T04:55:32.625Z,23.83
2018-11-21T04:58:12.158Z,23.57
2018-11-21T05:00:51.882Z,26.02
2018-11-21T05:06:44.489Z,23.18
2018-11-21T05:09:24.238Z,23.38
2018-11-21T05:12:04.067Z,20.68
2018-11-21T05:14:43.793Z,24.43
2018-11-21T05:17:23.869Z,26.85
2018-11-21T05:20:03.416Z,21.97
2018-11-21T05:22:43.551Z,24.60
2018-11-21T05:25:23.203Z,22.42
2018-11-21T05:28:03.158Z,23.57
2018-11-21T05:30:43.164Z,24.72
2018-11-21T05:33:24.546Z,24.27
2018-11-21T05:36:04.867Z,23.10
2018-11-21T05:38:44.342Z,23.92
2018-11-21T05:41:23.871Z,26.62
2018-11-21T05:44:03.444Z,26.27
2018-11-21T05:46:43.305Z,28.07
2018-11-21T05:49:22.893Z,24.75
2018-11-21T05:51:50.035Z,24.92
2018-11-21T05:54:36.691Z,27.82
2018-11-21T05:57:16.376Z,25.77
2018-11-21T05:59:56.199Z,24.98
2018-11-21T06:02:35.782Z,27.60
2018-11-21T06:05:15.319Z,26.62
2018-11-21T06:07:55.208Z,25.80
2018-11-21T06:10:34.977Z,28.80
2018-11-21T06:13:02.078Z,29.87
2018-11-21T06:15:48.708Z,25.77
2018-11-21T06:18:28.477Z,24.87
2018-11-21T06:21:08.442Z,26.97
2018-11-21T06:23:49.013Z,28.20
2018-11-21T06:26:28.384Z,24.35
2018-11-21T06:29:08.062Z,28.00
2018-11-21T06:31:47.694Z,26.62
2018-11-21T06:34:32.747Z,28.15
2018-11-21T06:37:07.223Z,25.80
2018-11-21T06:39:46.787Z,25.12
2018-11-21T06:42:13.922Z,26.62
2018-11-21T06:45:00.544Z,28.35
2018-11-21T06:47:40.188Z,28.45
2018-11-21T06:50:19.911Z,26.27
2018-11-21T06:52:59.379Z,29.98
2018-11-21T06:55:39.115Z,30.00
2018-11-21T06:58:18.712Z,27.87
2018-11-21T07:00:58.664Z,27.93
2018-11-21T07:03:25.760Z,27.52
2018-11-21T07:06:13.010Z,25.50
2018-11-21T07:08:59.695Z,30.27
2018-11-21T07:11:27.100Z,25.60
2018-11-21T07:14:13.823Z,28.45
2018-11-21T07:16:53.399Z,28.85
2018-11-21T07:19:32.905Z,27.17
2018-11-21T07:22:12.318Z,31.00
2018-11-21T07:24:52.408Z,28.95
2018-11-21T07:27:32.064Z,26.80
2018-11-21T07:30:13.089Z,28.05
2018-11-21T07:32:53.196Z,26.30
2018-11-21T07:35:32.787Z,27.90
2018-11-21T07:37:59.939Z,24.45
2018-11-21T07:40:46.588Z,26.85
2018-11-21T07:43:33.241Z,31.85
2018-11-21T07:46:19.907Z,25.75
2018-11-21T07:48:59.751Z,28.30
2018-11-21T07:51:39.335Z,36.85
2018-11-21T07:54:18.821Z,30.17
2018-11-21T07:57:00.954Z,29.52
2018-11-21T07:59:40.971Z,28.80
2018-11-21T08:02:25.287Z,28.38
2018-11-21T08:05:24.947Z,25.08
2018-11-21T08:08:11.714Z,26.97
2018-11-21T08:11:17.960Z,29.18
2018-11-21T08:14:24.147Z,25.95
2018-11-21T08:17:30.367Z,29.20
2018-11-21T08:20:29.510Z,27.87
2018-11-21T08:23:29.132Z,26.95
2018-11-21T08:26:23.412Z,27.67
2018-11-21T08:28:50.573Z,28.35
2018-11-21T08:31:37.292Z,29.12
2018-11-21T08:34:23.965Z,26.80
2018-11-21T08:37:03.517Z,28.25
2018-11-21T08:39:43.549Z,25.25
2018-11-21T08:42:23.186Z,26.60
2018-11-21T08:45:03.060Z,29.65
2018-11-21T08:47:42.694Z,30.43
2018-11-21T08:50:22.358Z,27.95
2018-11-21T08:53:02.348Z,27.37
2018-11-21T08:55:29.417Z,29.20
2018-11-21T08:58:16.107Z,31.50
2018-11-21T09:01:02.784Z,25.92
2018-11-21T09:03:49.431Z,26.07
2018-11-21T09:06:29.176Z,30.00
2018-11-21T09:08:56.621Z,31.12
2018-11-21T09:11:43.284Z,32.42
2018-11-21T09:14:23.466Z,30.50
2018-11-21T09:17:03.154Z,32.58
2018-11-21T09:19:30.652Z,27.40
2018-11-21T09:22:17.243Z,29.10
2018-11-21T09:25:05.072Z,27.35
2018-11-21T09:27:44.730Z,30.82
2018-11-21T09:30:24.285Z,30.00
2018-11-21T09:33:04.161Z,28.00
2018-11-21T09:35:43.799Z,26.50
2018-11-21T09:38:24.094Z,26.57
2018-11-21T09:41:04.568Z,32.60
2018-11-21T09:43:43.905Z,28.77
2018-11-21T09:46:23.717Z,25.60
2018-11-21T09:49:03.114Z,24.40
2018-11-21T09:51:42.973Z,25.08
2018-11-21T09:54:23.070Z,26.42
2018-11-21T09:57:03.437Z,28.00
2018-11-21T09:59:43.305Z,26.77
2018-11-21T10:02:23.585Z,26.15
2018-11-21T10:05:03.175Z,25.32
2018-11-21T10:07:42.918Z,24.65
2018-11-21T10:10:23.123Z,22.40
2018-11-21T10:13:02.756Z,26.35
2018-11-21T10:15:42.498Z,22.55
2018-11-21T10:18:09.670Z,31.50
2018-11-21T10:20:56.331Z,28.42
2018-11-21T10:23:36.039Z,26.42
2018-11-21T10:26:15.944Z,23.87
2018-11-21T10:28:55.500Z,26.73
2018-11-21T10:31:35.385Z,26.07
2018-11-21T10:34:02.590Z,26.77
2018-11-21T10:36:49.281Z,26.25
2018-11-21T10:39:35.981Z,24.32
2018-11-21T10:42:15.472Z,24.18
2018-11-21T10:44:55.476Z,28.00
2018-11-21T10:47:35.368Z,22.70
2018-11-21T10:50:15.132Z,28.00
2018-11-21T10:52:54.755Z,23.73
2018-11-21T10:55:34.584Z,26.20
2018-11-21T10:58:14.344Z,24.75
2018-11-21T11:01:13.561Z,28.75
2018-11-21T11:04:16.316Z,26.33
2018-11-21T11:07:15.974Z,23.12
2018-11-21T11:10:14.979Z,24.75
2018-11-21T11:12:53.542Z,23.50
2018-11-21T11:15:59.806Z,26.00
2018-11-21T11:18:59.047Z,31.25
2018-11-21T11:21:55.908Z,25.70
2018-11-21T11:24:55.789Z,27.65
2018-11-21T11:27:55.350Z,30.20
2018-11-21T11:33:56.516Z,29.50
2018-11-21T11:36:55.620Z,28.62
2018-11-21T11:39:54.909Z,28.15
2018-11-21T11:42:54.562Z,29.25
2018-11-21T11:46:00.284Z,28.20
2018-11-21T11:48:56.813Z,30.55
2018-11-21T11:51:56.049Z,29.37
2018-11-21T11:54:42.740Z,27.67
2018-11-21T11:57:49.037Z,30.97
2018-11-21T12:00:35.712Z,30.65
2018-11-21T12:03:41.936Z,32.98
2018-11-21T12:10:00.410Z,31.82
2018-11-21T12:12:59.512Z,31.20
2018-11-21T12:16:04.943Z,33.55
2018-11-21T12:19:04.594Z,32.63
2018-11-21T12:25:07.585Z,32.13
2018-11-21T12:28:07.146Z,32.67
2018-11-21T12:31:06.897Z,31.12
2018-11-21T12:34:09.494Z,31.85
2018-11-21T12:37:09.281Z,30.95
2018-11-21T12:40:11.338Z,30.95
2018-11-21T12:43:13.622Z,31.95
2018-11-21T12:46:08.351Z,34.20
2018-11-21T12:49:01.308Z,29.18
2018-11-21T12:52:00.368Z,32.08
2018-11-21T12:54:59.474Z,34.75
2018-11-21T12:58:05.651Z,30.72
2018-11-21T13:00:52.375Z,48.95
2018-11-21T13:03:58.622Z,35.10
2018-11-21T13:06:58.264Z,30.25
2018-11-21T13:09:58.143Z,29.92
2018-11-21T13:12:43.653Z,31.02
2018-11-21T13:15:43.647Z,29.40
2018-11-21T13:18:41.593Z,32.50
2018-11-21T13:21:29.330Z,30.12
2018-11-21T13:24:28.430Z,30.72
2018-11-21T13:27:27.562Z,29.35
2018-11-21T13:30:26.511Z,46.37
2018-11-21T13:33:26.317Z,28.77
2018-11-21T13:36:25.414Z,32.53
2018-11-21T13:39:12.956Z,34.20
2018-11-21T13:42:19.244Z,31.95
2018-11-21T13:48:23.234Z,36.58
2018-11-21T13:51:14.770Z,32.35
2018-11-21T13:54:14.635Z,33.05
2018-11-21T13:56:41.752Z,34.13
2018-11-21T13:59:28.449Z,32.00
2018-11-21T14:02:15.136Z,33.55
2018-11-21T14:04:55.447Z,33.48
2018-11-21T14:07:35.689Z,32.58
2018-11-21T14:10:15.204Z,34.83
2018-11-21T14:12:54.847Z,33.45
2018-11-21T14:15:34.601Z,33.45
2018-11-21T14:18:14.311Z,30.90
2018-11-21T14:20:53.812Z,31.52
2018-11-21T14:23:33.994Z,35.92
2018-11-21T14:26:13.684Z,34.65
2018-11-21T14:28:53.541Z,31.82
2018-11-21T14:31:33.841Z,33.33
2018-11-21T14:34:14.797Z,39.13
2018-11-21T14:36:55.120Z,31.45
2018-11-21T14:39:34.745Z,80.00
2018-11-21T14:42:14.341Z,33.65
2018-11-21T14:44:53.931Z,36.38
2018-11-21T14:47:21.104Z,32.63
2018-11-21T14:50:09.990Z,35.25
2018-11-21T14:52:49.918Z,36.30
2018-11-21T14:55:29.805Z,31.93
2018-11-21T14:58:10.009Z,36.80
2018-11-21T15:00:50.589Z,29.42
2018-11-21T15:03:30.941Z,32.63
2018-11-21T15:06:10.756Z,28.85
2018-11-21T15:08:50.785Z,32.23
2018-11-21T15:11:30.420Z,33.33
2018-11-21T15:13:57.593Z,28.27
2018-11-21T15:16:44.255Z,31.62
2018-11-21T15:19:24.247Z,32.55
2018-11-21T15:22:04.180Z,32.00
2018-11-21T15:24:41.984Z,38.05
2018-11-21T15:27:09.176Z,34.88
2018-11-21T15:29:36.330Z,33.20
2018-11-21T15:32:03.828Z,43.87
2018-11-21T15:34:50.506Z,40.23
2018-11-21T15:37:28.651Z,38.40
2018-11-21T15:40:17.013Z,38.23
2018-11-21T15:42:44.125Z,34.78
2018-11-21T15:45:13.356Z,32.30
2018-11-21T15:48:00.889Z,35.08
2018-11-21T15:50:47.571Z,31.70
2018-11-21T15:53:27.326Z,33.33
2018-11-21T15:56:07.294Z,31.30
2018-11-21T15:58:47.573Z,30.55
2018-11-21T16:01:29.547Z,35.88
2018-11-21T16:04:08.953Z,31.40
2018-11-21T16:06:48.810Z,30.62
2018-11-21T16:09:28.407Z,28.35
2018-11-21T16:12:08.196Z,34.05
2018-11-21T16:14:47.956Z,31.12
2018-11-21T16:17:27.780Z,34.58
2018-11-21T16:19:54.912Z,26.33
2018-11-21T16:22:41.863Z,31.65
2018-11-21T16:25:22.219Z,27.55
2018-11-21T16:34:11.869Z,37.53
2018-11-21T16:36:51.684Z,30.88
2018-11-21T16:39:31.366Z,30.30
2018-11-21T16:42:11.291Z,31.40
2018-11-21T16:44:50.684Z,28.60
2018-11-21T16:47:17.912Z,33.15
2018-11-21T16:50:06.518Z,39.75
2018-11-21T16:52:46.974Z,28.62
2018-11-21T16:55:26.916Z,28.57
2018-11-21T16:58:09.945Z,29.90
2018-11-21T17:00:49.693Z,28.50
2018-11-21T17:03:29.360Z,29.80
2018-11-21T17:06:09.132Z,27.90
2018-11-21T17:08:49.150Z,30.35
2018-11-21T17:11:28.552Z,27.42
2018-11-21T17:13:56.108Z,28.73
2018-11-21T17:16:42.805Z,28.52
2018-11-21T17:19:29.835Z,29.02
2018-11-21T17:22:09.284Z,27.02
2018-11-21T17:24:49.018Z,30.80
